ZPPP/KMG METAR and TAF weather

Enter ICAO airport designator
Station Type Date Time Source
ZPPP METAR 2020/09/22 04:00 UTC NOAA

ZPPP 220400Z 25004MPS 210V290 9999 SCT020 BKN036 21/18 Q1022 NOSIG


Station Type Date Time Source
ZPPP Decoded METAR 2020/09/22 04:00 UTC NOAA

Kunming, China (ZPPP) 25-01N 102-41E 1892M
Sep 22, 2020 - 12:00 AM EDT / 2020.09.22 0400 UTC
Wind: from the WSW (250 degrees) at 9 MPH (8 KT) (direction variable):0
Visibility: greater than 7 mile(s):0
Sky conditions: mostly cloudy
Temperature: 69 F (21 C)
Dew Point: 64 F (18 C)
Relative Humidity: 82%
Pressure (altimeter): 30.18 in. Hg (1022 hPa)
ob: ZPPP 220400Z 25004MPS 210V290 9999 SCT020 BKN036 21/18 Q1022 NOSIG
cycle: 4

Station Type Date Time Source
ZPPP TAF 2020/09/22 06:03 UTC NOAA

TAF ZPPP 220307Z 2206/2306 22005MPS 9999 SCT020 BKN033 TX23/2208Z TN17/2223Z
BECMG 2211/2212 04004MPS
TEMPO 2212/2216 TSRA FEW020CB SCT020 BKN033

Example: see airport list